Terminal Aerodrome Forecast
Issued by NWS Springfield, MO

Home | Current Version | Previous Version | Text Only | Print | Product List | Glossary On
Versions: 1 2 3 4 5 6 7 8 9 10 11 12 13 14 15 16 17 18
000
FTUS43 KSGF 171100
TAFSGF
TAF
KSGF 171120Z 1712/1812 35004KT P6SM FEW005 SCT015
     FM171300 34004KT P6SM SCT005 BKN015
      TEMPO 1713/1716 BKN004
     FM171600 30007KT P6SM BKN025
     FM171700 32007KT P6SM SCT030
     FM180100 VRB05KT P6SM SKC
     FM180900 VRB03KT 4SM BR SKC=

USA.gov is the U.S. government's official web portal to all federal, state and local government web resources and services.